Time;durP1;ratioP1;P1;durP2;ratioP2;P2;SDS_P1;SDS_P2;PMS_P1;PMS_P2;Temp;Humidity;BMP_temperature;BMP_pressure;BME280_temperature;BME280_humidity;BME280_pressure;Samples;Min_cycle;Max_cycle;Signal;HPM_P1;HPM_P2
2022/03/30 00:01:21;;;;;;;39.60;20.17;;;;;;;12.25;61.25;99879.72;4976502;28;20015;-88
2022/03/30 00:03:47;;;;;;;38.15;20.33;;;;;;;12.14;61.63;99871.88;4976545;28;20480;-88
2022/03/30 00:06:12;;;;;;;43.45;21.52;;;;;;;11.96;61.94;99871.59;4976456;28;20034;-88
2022/03/30 00:08:38;;;;;;;37.25;20.73;;;;;;;12.06;61.55;99869.88;4976447;28;20022;-88
2022/03/30 00:11:03;;;;;;;40.22;21.95;;;;;;;11.96;61.77;99868.97;4976435;28;20481;-87
2022/03/30 00:13:29;;;;;;;40.40;20.60;;;;;;;11.87;61.86;99868.75;4976398;28;20022;-88
2022/03/30 00:15:54;;;;;;;42.63;21.55;;;;;;;11.94;61.61;99877.00;4976219;28;20109;-88
2022/03/30 00:18:20;;;;;;;42.28;21.48;;;;;;;12.15;61.29;99874.41;4975990;28;20082;-88
2022/03/30 00:20:45;;;;;;;35.45;20.33;;;;;;;12.26;61.01;99868.22;4976182;28;20118;-88
2022/03/30 00:23:11;;;;;;;38.92;21.80;;;;;;;12.31;60.63;99871.31;4976208;28;20050;-88
2022/03/30 00:25:37;;;;;;;44.03;22.27;;;;;;;12.19;61.24;99878.44;4976072;28;20058;-88
2022/03/30 00:28:02;;;;;;;40.85;22.05;;;;;;;11.98;61.67;99874.94;4976119;28;20030;-88
2022/03/30 00:30:29;;;;;;;41.88;22.23;;;;;;;12.12;61.24;99865.91;4975865;28;20027;-88
2022/03/30 00:32:54;;;;;;;40.08;21.08;;;;;;;12.21;61.08;99865.16;4975983;28;20121;-88
2022/03/30 00:35:19;;;;;;;36.00;20.17;;;;;;;12.10;60.92;99866.91;4976037;28;20074;-88
2022/03/30 00:37:45;;;;;;;41.70;20.98;;;;;;;12.09;61.02;99877.53;4975929;28;20117;-87
2022/03/30 00:40:14;;;;;;;41.70;21.52;;;;;;;12.23;61.21;99876.41;4975906;28;20489;-88
2022/03/30 00:42:39;;;;;;;38.63;20.85;;;;;;;12.13;61.14;99868.44;4975931;28;20030;-88
2022/03/30 00:45:23;;;;;;;43.60;23.25;;;;;;;12.25;61.12;99867.41;4975918;28;20041;-87
2022/03/30 00:47:50;;;;;;;38.83;20.92;;;;;;;12.22;61.20;99857.13;4975565;28;20023;-88
2022/03/30 00:50:17;;;;;;;38.50;19.80;;;;;;;12.35;61.03;99862.19;4975446;28;20051;-87
2022/03/30 00:52:44;;;;;;;40.47;22.10;;;;;;;12.30;61.30;99862.59;4975645;28;20027;-88
2022/03/30 00:55:10;;;;;;;39.97;22.15;;;;;;;12.28;60.80;99854.00;4975445;28;20023;-87
2022/03/30 00:57:37;;;;;;;38.55;19.33;;;;;;;12.24;61.11;99860.47;4975530;28;20381;-88
2022/03/30 01:00:08;;;;;;;38.72;21.15;;;;;;;12.35;61.16;99862.19;4975371;28;20113;-88
2022/03/30 01:02:38;;;;;;;39.50;21.48;;;;;;;12.37;61.07;99856.81;4974509;28;20109;-88
2022/03/30 01:05:04;;;;;;;39.33;20.58;;;;;;;12.40;61.06;99859.16;4975351;28;20031;-88
2022/03/30 01:07:29;;;;;;;42.22;22.88;;;;;;;12.49;60.35;99861.84;4975093;28;20106;-88
2022/03/30 01:09:54;;;;;;;38.33;21.70;;;;;;;12.41;60.80;99848.50;4975111;28;20549;-88
2022/03/30 01:12:20;;;;;;;41.22;22.98;;;;;;;12.30;60.91;99841.53;4975239;28;20026;-88
2022/03/30 01:14:46;;;;;;;36.33;20.88;;;;;;;12.24;61.57;99842.06;4974981;28;20034;-88
2022/03/30 01:17:11;;;;;;;41.53;22.15;;;;;;;12.29;61.24;99841.66;4973774;28;20034;-88
2022/03/30 01:19:37;;;;;;;44.17;21.45;;;;;;;12.50;60.68;99841.66;4973874;28;20022;-88
2022/03/30 01:22:03;;;;;;;40.70;22.00;;;;;;;12.43;60.60;99843.13;4973809;28;20102;-87
2022/03/30 01:24:28;;;;;;;39.80;21.92;;;;;;;12.35;60.93;99832.41;4974934;28;20160;-88
2022/03/30 01:26:54;;;;;;;39.65;22.42;;;;;;;12.44;60.28;99829.84;4973575;28;20113;-87
2022/03/30 01:34:48;;;;;;;38.08;21.05;;;;;;;12.24;60.80;99806.97;4974921;28;20041;-87
2022/03/30 01:37:14;;;;;;;35.85;21.33;;;;;;;12.43;59.61;99811.53;4974939;28;20035;-87
2022/03/30 01:39:40;;;;;;;42.85;22.35;;;;;;;12.46;59.67;99811.25;4974511;28;20023;-87
2022/03/30 01:42:07;;;;;;;37.65;20.52;;;;;;;12.38;59.92;99806.66;4974560;28;20390;-87
2022/03/30 01:44:33;;;;;;;39.70;21.42;;;;;;;12.39;59.70;99802.22;4974476;28;20450;-87
2022/03/30 01:46:58;;;;;;;35.90;20.38;;;;;;;12.47;59.54;99807.66;4974576;28;20038;-87
2022/03/30 01:49:24;;;;;;;33.97;19.95;;;;;;;12.48;59.82;99806.72;4974390;28;20031;-87
2022/03/30 01:51:55;;;;;;;39.55;21.67;;;;;;;12.55;59.27;99809.66;4974358;28;20031;-87
2022/03/30 01:54:23;;;;;;;36.50;22.73;;;;;;;12.49;59.29;99796.03;4974510;28;20078;-87
2022/03/30 01:56:49;;;;;;;37.08;22.42;;;;;;;12.41;59.21;99787.97;4974343;28;20117;-87
2022/03/30 01:59:16;;;;;;;41.10;22.60;;;;;;;12.31;59.01;99792.34;4974227;28;20027;-87
2022/03/30 02:01:41;;;;;;;35.90;22.52;;;;;;;12.32;58.70;99794.00;4974351;28;20034;-87
2022/03/30 02:04:07;;;;;;;38.28;23.58;;;;;;;12.41;58.55;99784.50;4974200;28;20034;-88
2022/03/30 02:06:34;;;;;;;36.10;22.17;;;;;;;12.32;58.66;99783.47;4974129;28;20026;-87
2022/03/30 02:08:59;;;;;;;36.75;22.30;;;;;;;12.35;58.52;99777.97;4974243;28;20549;-87
2022/03/30 02:11:26;;;;;;;39.95;23.23;;;;;;;12.34;58.88;99776.28;4974074;28;20106;-87
2022/03/30 02:13:55;;;;;;;40.83;23.58;;;;;;;12.24;58.88;99772.75;4973858;28;20058;-87
2022/03/30 02:16:20;;;;;;;36.88;22.50;;;;;;;12.25;58.71;99777.91;4974103;28;20106;-87
2022/03/30 02:18:46;;;;;;;38.42;23.17;;;;;;;12.25;58.92;99788.44;4974089;28;20033;-87
2022/03/30 02:21:12;;;;;;;44.55;24.63;;;;;;;12.21;58.83;99780.94;4973824;28;20058;-87
2022/03/30 02:23:38;;;;;;;41.88;24.02;;;;;;;12.22;59.00;99772.91;4973990;28;20058;-88
2022/03/30 02:26:03;;;;;;;39.72;23.80;;;;;;;11.94;59.11;99770.94;4973756;28;20035;-87
2022/03/30 02:28:28;;;;;;;38.58;24.52;;;;;;;11.98;59.66;99772.34;4973897;28;20533;-86
2022/03/30 02:30:54;;;;;;;43.13;24.13;;;;;;;12.07;59.20;99764.50;4973741;28;20050;-88
2022/03/30 02:33:20;;;;;;;38.08;23.90;;;;;;;11.98;59.40;99762.63;4972557;28;20034;-88
2022/03/30 02:35:45;;;;;;;41.33;24.23;;;;;;;11.89;59.56;99756.38;4973801;28;20022;-87
2022/03/30 02:38:10;;;;;;;41.53;23.98;;;;;;;11.72;59.44;99759.53;4973923;28;20095;-88
2022/03/30 02:40:36;;;;;;;40.35;23.27;;;;;;;11.77;60.05;99761.78;4973652;28;20051;-87
2022/03/30 02:43:01;;;;;;;45.55;23.92;;;;;;;11.84;60.06;99758.50;4973820;28;20034;-88
2022/03/30 02:45:27;;;;;;;41.67;22.40;;;;;;;11.88;59.78;99757.28;4973483;28;20449;-88
2022/03/30 02:50:36;;;;;;;39.45;22.77;;;;;;;12.04;59.21;99753.41;4973496;28;20037;-88
2022/03/30 02:53:01;;;;;;;37.67;22.58;;;;;;;12.13;58.77;99752.63;4973601;28;20022;-88
2022/03/30 02:55:26;;;;;;;39.45;23.08;;;;;;;12.09;58.89;99753.84;4972365;28;20050;-88
2022/03/30 02:57:52;;;;;;;35.92;21.75;;;;;;;12.23;58.63;99755.31;4981189;28;20362;-87
2022/03/30 03:00:18;;;;;;;36.80;21.30;;;;;;;12.14;58.86;99758.72;4983948;28;20056;-88
2022/03/30 03:02:43;;;;;;;37.78;20.58;;;;;;;12.23;58.50;99761.41;4978870;28;20023;-88
2022/03/30 03:05:09;;;;;;;42.38;22.33;;;;;;;12.25;58.67;99756.84;4974000;28;20038;-87
2022/03/30 03:07:34;;;;;;;36.05;22.00;;;;;;;12.19;58.80;99757.38;4973953;28;20018;-87
2022/03/30 03:09:59;;;;;;;35.92;21.33;;;;;;;11.98;59.33;99748.66;4979229;28;20042;-87
2022/03/30 03:12:25;;;;;;;32.53;20.58;;;;;;;12.10;59.24;99751.09;4997739;28;20034;-88
2022/03/30 03:14:50;;;;;;;34.67;20.75;;;;;;;12.07;59.21;99748.72;4997781;28;20094;-87
2022/03/30 03:17:16;;;;;;;37.13;20.98;;;;;;;11.93;59.79;99740.31;4997760;28;20069;-86
2022/03/30 03:19:42;;;;;;;35.78;20.38;;;;;;;12.08;59.71;99739.03;4998098;28;20022;-87
2022/03/30 03:22:08;;;;;;;38.58;21.73;;;;;;;11.94;59.65;99742.00;4998073;28;20015;-88
2022/03/30 03:24:33;;;;;;;37.60;20.67;;;;;;;11.90;59.58;99744.88;4994174;28;20448;-88
2022/03/30 03:26:59;;;;;;;35.83;21.50;;;;;;;12.11;59.02;99744.03;4996858;28;20166;-87
2022/03/30 03:29:25;;;;;;;31.80;20.02;;;;;;;12.26;58.77;99742.75;5001737;28;20046;-87
2022/03/30 03:31:50;;;;;;;36.42;20.83;;;;;;;12.09;58.80;99741.53;5001226;28;20030;-86
2022/03/30 03:34:16;;;;;;;36.80;18.40;;;;;;;12.14;58.82;99743.75;5000141;28;20015;-86
2022/03/30 03:36:41;;;;;;;32.75;19.50;;;;;;;12.13;58.93;99731.59;5000661;28;20082;-86
2022/03/30 03:39:06;;;;;;;37.65;18.70;;;;;;;12.04;58.44;99733.19;5000557;28;20031;-88
2022/03/30 03:41:32;;;;;;;30.40;17.50;;;;;;;12.12;58.47;99734.34;4996497;28;20033;-87
2022/03/30 03:43:57;;;;;;;30.50;18.00;;;;;;;12.12;58.43;99732.53;4991024;28;20023;-87
2022/03/30 03:46:22;;;;;;;31.90;19.02;;;;;;;12.12;58.45;99722.00;4995210;28;20034;-87
2022/03/30 03:48:48;;;;;;;28.83;18.23;;;;;;;11.90;57.98;99725.63;5001395;28;20019;-88
2022/03/30 03:51:13;;;;;;;30.48;18.00;;;;;;;11.99;58.61;99724.03;5001488;28;20049;-87
2022/03/30 03:53:39;;;;;;;29.02;17.52;;;;;;;12.04;58.24;99720.03;4995161;28;20540;-88
2022/03/30 03:56:05;;;;;;;29.48;17.92;;;;;;;12.09;58.11;99719.66;4977714;28;20105;-88
2022/03/30 03:58:30;;;;;;;31.52;17.88;;;;;;;12.02;58.00;99719.31;4976714;28;20548;-88
2022/03/30 04:00:56;;;;;;;27.05;16.95;;;;;;;12.07;58.23;99716.31;4976743;28;20481;-90
2022/03/30 04:03:21;;;;;;;31.77;19.23;;;;;;;12.01;58.13;99719.47;4976622;28;20027;-89
2022/03/30 04:05:47;;;;;;;28.27;17.80;;;;;;;12.05;57.26;99718.25;4977740;28;20034;-88
2022/03/30 04:08:12;;;;;;;30.88;18.63;;;;;;;12.02;58.40;99724.59;4977492;28;20023;-88
2022/03/30 04:10:38;;;;;;;29.88;17.55;;;;;;;12.02;57.99;99727.22;4977278;28;20106;-88
2022/03/30 04:13:07;;;;;;;32.20;18.65;;;;;;;12.03;58.09;99725.44;4976974;28;20106;-88
2022/03/30 04:15:37;;;;;;;26.40;16.63;;;;;;;12.11;58.12;99723.00;4977433;28;20030;-88
2022/03/30 04:18:04;;;;;;;29.50;18.08;;;;;;;12.06;57.72;99725.16;4977644;28;20034;-88
2022/03/30 04:20:31;;;;;;;30.58;18.05;;;;;;;11.94;58.29;99720.94;4977024;28;20086;-88
2022/03/30 04:22:56;;;;;;;31.95;17.25;;;;;;;11.81;57.98;99727.22;4977349;28;20389;-88
2022/03/30 04:25:23;;;;;;;29.98;17.83;;;;;;;11.81;58.40;99721.97;4977478;28;20042;-88
2022/03/30 04:27:51;;;;;;;28.23;17.98;;;;;;;11.82;58.53;99718.34;4977131;28;20063;-88
2022/03/30 04:30:19;;;;;;;31.08;17.95;;;;;;;11.80;58.44;99720.28;4976674;28;20034;-88
2022/03/30 04:32:45;;;;;;;32.15;18.05;;;;;;;11.92;58.14;99723.69;4979746;28;20039;-88
2022/03/30 04:35:12;;;;;;;28.58;17.60;;;;;;;11.78;58.45;99716.94;4992245;28;20037;-88
2022/03/30 04:37:39;;;;;;;28.00;16.77;;;;;;;11.80;58.45;99715.00;4994728;28;20088;-89
2022/03/30 04:40:06;;;;;;;29.55;17.23;;;;;;;11.79;58.39;99713.38;4994691;28;20030;-88
2022/03/30 04:42:32;;;;;;;30.05;16.70;;;;;;;11.93;57.93;99714.00;4996075;28;20050;-88
2022/03/30 04:44:57;;;;;;;28.35;16.58;;;;;;;11.94;57.59;99713.88;4995755;28;20508;-88
2022/03/30 04:47:22;;;;;;;30.17;16.67;;;;;;;11.86;58.08;99703.97;4994835;28;20181;-88
2022/03/30 04:49:48;;;;;;;22.75;15.25;;;;;;;11.90;57.79;99710.66;4995140;28;20026;-88
2022/03/30 04:52:13;;;;;;;25.30;16.27;;;;;;;11.92;57.76;99712.34;4995036;28;20023;-88
2022/03/30 04:54:39;;;;;;;27.45;17.00;;;;;;;11.96;57.94;99708.50;4993481;28;20114;-88
2022/03/30 04:57:04;;;;;;;28.27;17.45;;;;;;;12.01;57.97;99711.59;4995035;28;20034;-88
2022/03/30 04:59:30;;;;;;;26.92;16.67;;;;;;;11.94;57.62;99713.06;4995122;28;20022;-88
2022/03/30 05:01:55;;;;;;;24.92;15.55;;;;;;;11.95;57.95;99712.06;4993874;28;20030;-88
2022/03/30 05:04:20;;;;;;;27.63;16.73;;;;;;;11.92;57.97;99710.53;4995004;28;20034;-88
2022/03/30 05:06:46;;;;;;;28.20;17.05;;;;;;;11.86;58.36;99713.66;4993725;28;20113;-87
2022/03/30 05:09:12;;;;;;;31.85;16.90;;;;;;;11.87;58.00;99697.75;4993765;28;20461;-87
2022/03/30 05:11:39;;;;;;;26.50;17.38;;;;;;;11.79;57.73;99689.69;4993369;28;20037;-88
2022/03/30 05:14:05;;;;;;;25.52;16.60;;;;;;;11.92;58.07;99704.47;4994590;28;20018;-88
2022/03/30 05:16:31;;;;;;;26.13;16.35;;;;;;;11.93;57.84;99714.00;4995146;28;20030;-88
2022/03/30 05:18:56;;;;;;;25.75;16.05;;;;;;;11.92;58.27;99709.72;4993291;28;20037;-88
2022/03/30 05:21:22;;;;;;;29.48;16.85;;;;;;;11.96;57.95;99704.06;4994419;28;20535;-87
2022/03/30 05:23:48;;;;;;;26.55;16.55;;;;;;;11.86;57.76;99700.50;4993299;28;20027;-87
2022/03/30 05:26:13;;;;;;;27.23;16.33;;;;;;;11.86;57.65;99703.97;4994351;28;20026;-88
2022/03/30 05:28:40;;;;;;;28.40;16.50;;;;;;;11.92;57.47;99697.41;4993412;28;20491;-87
2022/03/30 05:31:06;;;;;;;31.42;17.48;;;;;;;11.92;56.89;99707.09;4994533;28;20030;-88
2022/03/30 05:33:31;;;;;;;26.70;16.98;;;;;;;11.88;57.41;99702.03;4994088;28;20033;-88
2022/03/30 05:35:57;;;;;;;25.75;16.20;;;;;;;11.87;57.56;99692.50;4994122;28;20113;-88
2022/03/30 05:38:22;;;;;;;23.42;15.95;;;;;;;11.88;57.66;99695.97;4994214;28;20113;-88
2022/03/30 05:40:48;;;;;;;25.05;16.05;;;;;;;11.85;57.25;99689.16;4994181;28;20022;-87
2022/03/30 05:43:13;;;;;;;29.13;16.63;;;;;;;11.79;57.47;99687.06;4984716;28;20078;-88
2022/03/30 05:45:39;;;;;;;23.17;15.30;;;;;;;11.73;58.02;99694.63;4980379;28;20022;-84
2022/03/30 05:48:04;;;;;;;23.17;15.52;;;;;;;11.86;57.53;99700.50;4974196;28;20485;-86
2022/03/30 05:50:29;;;;;;;25.15;15.35;;;;;;;11.76;57.46;99705.72;4976576;28;20027;-88
2022/03/30 05:52:55;;;;;;;25.52;16.17;;;;;;;11.82;57.53;99702.56;4979454;28;20030;-88
2022/03/30 05:55:20;;;;;;;27.23;16.75;;;;;;;11.86;57.46;99700.50;4980228;28;20034;-89
2022/03/30 05:57:46;;;;;;;25.58;16.65;;;;;;;11.73;57.32;99689.34;4992668;28;20027;-88
2022/03/30 06:00:12;;;;;;;30.55;16.85;;;;;;;11.73;57.50;99698.09;4984774;28;20027;-90
2022/03/30 06:02:37;;;;;;;26.95;16.35;;;;;;;11.70;57.50;99704.44;4983189;28;20027;-88
2022/03/30 06:05:04;;;;;;;30.50;17.48;;;;;;;11.83;56.81;99713.94;4974325;28;20022;-86
2022/03/30 06:07:29;;;;;;;26.85;17.02;;;;;;;11.70;56.83;99708.88;4974762;28;20507;-88
2022/03/30 06:09:55;;;;;;;27.20;16.85;;;;;;;11.69;57.19;99707.22;4976085;28;20041;-89
2022/03/30 06:12:23;;;;;;;26.85;16.88;;;;;;;11.74;57.33;99704.19;4974712;28;20037;-92
2022/03/30 06:14:49;;;;;;;27.45;17.20;;;;;;;11.72;57.15;99706.94;4981088;28;20505;-84
2022/03/30 06:17:17;;;;;;;28.48;17.30;;;;;;;11.79;57.35;99709.88;4989144;28;20061;-84
2022/03/30 06:19:45;;;;;;;29.25;18.20;;;;;;;11.75;57.40;99709.31;4983017;28;20050;-84
2022/03/30 06:22:11;;;;;;;25.70;16.33;;;;;;;11.74;57.67;99709.44;4978946;28;20101;-84
2022/03/30 06:24:38;;;;;;;27.70;16.80;;;;;;;11.87;57.20;99707.47;4979302;28;20027;-84
2022/03/30 06:27:07;;;;;;;26.60;16.35;;;;;;;11.88;57.47;99707.31;4974114;28;20121;-84
2022/03/30 06:29:34;;;;;;;25.75;17.08;;;;;;;11.89;57.18;99708.19;4973869;28;20039;-84
2022/03/30 06:31:59;;;;;;;26.83;17.35;;;;;;;11.68;57.52;99705.53;4979708;28;20110;-84
2022/03/30 06:34:25;;;;;;;27.50;17.55;;;;;;;11.96;56.90;99701.44;4973624;28;20054;-84
2022/03/30 06:36:50;;;;;;;28.27;16.27;;;;;;;11.97;56.71;99704.91;4972475;28;20089;-84
2022/03/30 06:39:16;;;;;;;29.77;16.60;;;;;;;12.09;56.34;99709.13;4973674;28;20078;-85
2022/03/30 06:41:42;;;;;;;28.70;16.90;;;;;;;11.99;56.70;99718.78;4973673;28;20067;-84
2022/03/30 06:44:08;;;;;;;27.65;16.98;;;;;;;11.87;56.83;99708.28;4973566;28;20023;-84
2022/03/30 06:46:38;;;;;;;23.92;16.83;;;;;;;11.87;57.17;99712.72;4973550;28;20034;-85
2022/03/30 06:49:07;;;;;;;24.98;16.20;;;;;;;11.93;57.30;99708.75;4973569;28;20034;-86
2022/03/30 06:51:33;;;;;;;25.27;16.13;;;;;;;11.88;57.69;99701.22;4973645;28;20030;-86
2022/03/30 06:53:58;;;;;;;28.67;16.73;;;;;;;11.94;57.21;99702.53;4980830;28;20076;-85
2022/03/30 06:56:24;;;;;;;24.02;16.23;;;;;;;12.06;56.90;99709.38;4977349;28;20114;-86
2022/03/30 06:58:50;;;;;;;23.80;15.18;;;;;;;12.13;57.09;99705.25;4983737;28;20058;-85
2022/03/30 07:01:16;;;;;;;27.10;16.63;;;;;;;12.20;56.70;99716.09;4973162;28;20065;-86
2022/03/30 07:03:41;;;;;;;25.02;15.95;;;;;;;12.25;56.43;99719.16;4979343;28;20485;-86
2022/03/30 07:06:07;;;;;;;25.00;17.50;;;;;;;12.26;56.06;99712.94;4978869;28;20035;-86
2022/03/30 07:11:17;;;;;;;27.33;17.30;;;;;;;12.27;56.36;99712.81;4977531;28;20033;-87
2022/03/30 07:13:43;;;;;;;25.05;15.57;;;;;;;12.26;56.87;99716.41;4971399;28;20027;-86
2022/03/30 07:16:08;;;;;;;25.73;17.02;;;;;;;12.42;56.40;99710.66;4973085;28;20037;-87
2022/03/30 07:18:34;;;;;;;27.08;16.52;;;;;;;12.50;55.95;99707.34;4986541;28;20034;-88
2022/03/30 07:20:59;;;;;;;22.42;14.73;;;;;;;12.60;55.93;99713.47;4980001;28;20485;-86
2022/03/30 07:23:24;;;;;;;23.55;15.45;;;;;;;12.68;55.72;99705.75;4973507;28;20122;-85
2022/03/30 07:25:50;;;;;;;21.23;15.27;;;;;;;12.80;55.60;99718.81;4985013;28;20063;-86
2022/03/30 07:28:16;;;;;;;21.63;15.32;;;;;;;12.64;55.17;99720.16;4983618;28;20030;-86
2022/03/30 07:30:44;;;;;;;23.27;14.82;;;;;;;12.83;55.31;99713.25;4991304;28;20072;-86
2022/03/30 07:33:09;;;;;;;24.48;16.08;;;;;;;12.95;55.00;99717.41;4985869;28;20425;-85
2022/03/30 07:35:35;;;;;;;27.88;17.17;;;;;;;13.01;54.88;99716.91;4975741;28;20036;-85
2022/03/30 07:38:01;;;;;;;29.02;16.42;;;;;;;13.14;54.34;99721.06;4997925;28;20050;-85
2022/03/30 07:40:29;;;;;;;21.48;14.98;;;;;;;13.19;54.19;99709.16;5001366;28;20109;-84
2022/03/30 07:42:55;;;;;;;24.40;16.30;;;;;;;13.27;53.17;99716.38;4988958;28;20436;-85
2022/03/30 07:45:23;;;;;;;24.63;16.55;;;;;;;13.40;52.96;99703.75;4973736;28;20035;-85
2022/03/30 07:47:49;;;;;;;21.75;15.77;;;;;;;13.52;52.84;99711.53;4972829;28;20019;-86
2022/03/30 07:50:15;;;;;;;22.83;16.33;;;;;;;13.57;52.95;99711.94;4972961;28;20041;-86
2022/03/30 07:52:42;;;;;;;26.15;17.35;;;;;;;13.43;52.69;99715.84;4975039;28;20018;-86
2022/03/30 07:55:08;;;;;;;24.30;17.10;;;;;;;13.39;52.47;99710.00;4972829;28;20326;-86
2022/03/30 07:57:36;;;;;;;25.92;17.17;;;;;;;13.64;52.52;99707.75;4972779;28;20023;-86
2022/03/30 08:00:05;;;;;;;28.08;17.17;;;;;;;13.85;52.23;99695.22;4972526;28;20119;-86
2022/03/30 08:02:30;;;;;;;22.92;15.50;;;;;;;14.03;52.24;99697.13;4972714;28;20042;-86
2022/03/30 08:04:56;;;;;;;26.63;17.27;;;;;;;14.07;51.69;99703.78;4971444;28;20027;-87
2022/03/30 08:07:22;;;;;;;25.52;16.83;;;;;;;14.32;51.06;99701.47;4972936;28;20038;-86
2022/03/30 08:09:48;;;;;;;25.88;17.35;;;;;;;14.37;51.45;99700.03;4972333;28;20029;-86
2022/03/30 08:12:15;;;;;;;27.98;17.00;;;;;;;14.29;50.64;99700.75;4974802;28;20030;-86
2022/03/30 08:14:41;;;;;;;28.83;17.67;;;;;;;14.24;51.33;99700.38;4976451;28;20492;-86
2022/03/30 08:17:07;;;;;;;24.77;16.25;;;;;;;14.13;51.67;99697.09;4976270;28;20469;-86
2022/03/30 08:19:32;;;;;;;28.80;16.20;;;;;;;14.27;51.49;99694.78;4976070;28;20081;-86
2022/03/30 08:24:46;;;;;;;25.65;16.63;;;;;;;14.46;50.72;99691.25;4976252;28;20089;-87
2022/03/30 08:27:20;;;;;;;25.33;15.88;;;;;;;14.62;50.36;99677.41;4976525;28;20377;-86
2022/03/30 08:29:46;;;;;;;24.60;17.38;;;;;;;14.73;50.47;99668.47;4974674;28;20019;-86
2022/03/30 08:32:13;;;;;;;28.27;17.80;;;;;;;15.08;49.98;99677.38;4975885;28;20046;-86
2022/03/30 08:34:39;;;;;;;29.17;17.70;;;;;;;15.52;49.34;99681.88;4975940;28;20030;-86
2022/03/30 08:37:05;;;;;;;29.20;17.98;;;;;;;15.82;48.22;99678.81;4975740;28;20035;-87
2022/03/30 08:39:31;;;;;;;28.10;18.25;;;;;;;16.17;47.41;99678.84;4975695;28;20099;-86
2022/03/30 08:41:56;;;;;;;27.30;19.00;;;;;;;16.78;46.20;99674.25;4974798;28;20027;-86
2022/03/30 08:44:22;;;;;;;28.67;16.50;;;;;;;17.80;44.68;99675.63;4974273;28;20031;-86
2022/03/30 08:46:48;;;;;;;25.38;16.85;;;;;;;18.41;43.32;99672.50;4975607;28;20113;-84
2022/03/30 08:49:16;;;;;;;27.48;17.02;;;;;;;18.68;43.22;99665.03;4975734;28;20085;-84
2022/03/30 08:51:47;;;;;;;27.42;17.35;;;;;;;18.91;41.16;99663.28;4976799;28;20058;-85
2022/03/30 08:54:14;;;;;;;26.10;16.50;;;;;;;19.15;40.53;99656.13;4976277;28;20033;-84
2022/03/30 08:56:40;;;;;;;22.88;16.55;;;;;;;19.02;40.50;99654.88;4975827;28;20444;-85
2022/03/30 08:59:08;;;;;;;24.08;16.88;;;;;;;19.87;39.05;99665.50;4975677;28;20085;-85
2022/03/30 09:01:35;;;;;;;25.70;17.60;;;;;;;20.17;39.05;99671.66;4975788;28;20031;-85
2022/03/30 09:04:05;;;;;;;23.10;16.10;;;;;;;20.84;38.72;99672.50;4975979;28;20062;-84
2022/03/30 09:06:36;;;;;;;21.48;15.55;;;;;;;21.50;37.29;99672.31;4975637;28;20026;-86
2022/03/30 09:09:03;;;;;;;24.90;17.15;;;;;;;20.79;37.03;99670.38;4975590;28;20034;-85
2022/03/30 09:11:36;;;;;;;24.17;15.68;;;;;;;20.65;38.22;99672.06;4975305;28;20030;-85
2022/03/30 09:14:03;;;;;;;19.10;15.25;;;;;;;20.83;38.18;99663.63;4976071;28;20221;-85
2022/03/30 09:16:42;;;;;;;23.92;15.98;;;;;;;20.63;38.34;99659.94;4975305;28;20113;-85
2022/03/30 09:19:10;;;;;;;21.35;15.48;;;;;;;20.02;39.12;99658.31;4973840;28;20027;-86
2022/03/30 09:21:57;;;;;;;22.15;16.67;;;;;;;20.78;38.68;99655.41;4974214;28;20026;-86
2022/03/30 09:24:25;;;;;;;20.98;15.95;;;;;;;20.95;36.97;99654.16;4974838;28;20031;-86
2022/03/30 09:26:51;;;;;;;22.48;16.25;;;;;;;21.25;37.20;99653.16;4974927;28;20034;-86
2022/03/30 09:29:20;;;;;;;23.20;17.33;;;;;;;21.39;36.94;99650.41;4975141;28;20023;-85
2022/03/30 09:31:48;;;;;;;27.90;16.17;;;;;;;21.92;36.73;99652.69;4974995;28;20027;-86
2022/03/30 09:34:14;;;;;;;20.60;15.77;;;;;;;22.59;35.73;99650.34;4974915;28;20045;-86
2022/03/30 09:36:41;;;;;;;25.08;17.58;;;;;;;22.21;36.06;99658.78;4975089;28;20041;-86
2022/03/30 09:39:12;;;;;;;21.27;15.13;;;;;;;21.83;36.18;99650.34;4975588;28;20062;-86
2022/03/30 09:41:51;;;;;;;23.95;16.90;;;;;;;21.52;36.80;99648.91;4974418;28;20041;-86
2022/03/30 09:44:18;;;;;;;23.52;17.25;;;;;;;21.40;36.76;99661.91;4974660;28;20113;-86
2022/03/30 09:47:10;;;;;;;26.50;18.52;;;;;;;21.04;37.32;99660.16;4974872;28;20023;-86
2022/03/30 09:49:35;;;;;;;;;;;;;;;20.85;37.53;99655.44;4974318;28;20513;-85
2022/03/30 09:52:01;;;;;;;23.63;17.17;;;;;;;20.31;39.03;99662.00;4974422;28;19953;-86
2022/03/30 09:54:41;;;;;;;25.50;18.45;;;;;;;20.49;38.07;99659.75;4974308;28;20098;-86
2022/03/30 09:57:19;;;;;;;24.50;18.52;;;;;;;20.01;38.68;99660.16;4974193;28;20443;-86
2022/03/30 10:00:18;;;;;;;25.40;17.20;;;;;;;19.67;39.02;99660.69;4974252;28;20046;-85
2022/03/30 10:02:51;;;;;;;26.83;17.58;;;;;;;19.11;40.35;99666.28;4970073;28;20038;-87
2022/03/30 10:05:21;;;;;;;22.05;15.88;;;;;;;18.97;40.65;99654.59;4974005;28;20023;-86
2022/03/30 10:07:46;;;;;;;28.35;19.60;;;;;;;19.11;41.03;99654.81;4972927;28;20469;-86
2022/03/30 10:10:15;;;;;;;24.10;18.02;;;;;;;19.59;40.53;99648.25;4974260;28;20030;-86
2022/03/30 10:12:42;;;;;;;26.73;18.15;;;;;;;19.75;39.37;99651.81;4973965;28;20034;-86
2022/03/30 10:15:08;;;;;;;23.95;17.13;;;;;;;19.88;39.24;99657.31;4972666;28;21065;-86
2022/03/30 10:17:34;;;;;;;25.35;17.25;;;;;;;20.26;39.51;99648.38;4974064;28;20073;-87
2022/03/30 10:20:01;;;;;;;28.58;19.45;;;;;;;20.17;39.04;99639.69;4973953;28;20022;-87
2022/03/30 10:22:55;;;;;;;25.85;18.88;;;;;;;19.99;39.77;99646.19;4972569;28;20031;-86
2022/03/30 10:25:39;;;;;;;25.45;17.92;;;;;;;19.86;39.79;99648.66;4972579;28;20393;-87
2022/03/30 10:28:23;;;;;;;26.92;18.20;;;;;;;20.24;39.19;99642.41;4974292;28;20134;-86
2022/03/30 10:30:54;;;;;;;28.88;18.20;;;;;;;20.04;39.87;99645.63;4973647;28;20062;-86
2022/03/30 10:33:40;;;;;;;27.45;18.45;;;;;;;20.07;39.34;99645.28;4972363;28;20036;-85
2022/03/30 10:36:32;;;;;;;23.58;18.33;;;;;;;20.20;39.55;99644.63;4973678;28;20548;-88
2022/03/30 10:39:08;;;;;;;26.80;19.02;;;;;;;20.11;39.59;99648.41;4984514;28;20540;-88
2022/03/30 10:41:51;;;;;;;30.15;18.52;;;;;;;19.65;40.85;99646.72;4993629;28;20030;-88
2022/03/30 10:44:58;;;;;;;24.85;18.15;;;;;;;19.22;40.88;99641.09;4993762;28;20030;-89
2022/03/30 10:47:26;;;;;;;31.23;19.60;;;;;;;18.71;42.23;99638.13;4991080;28;20548;-88
2022/03/30 10:50:00;;;;;;;31.48;21.25;;;;;;;18.66;42.60;99636.00;4990856;28;20046;-88
2022/03/30 10:52:40;;;;;;;29.98;21.50;;;;;;;18.52;42.76;99634.06;4985333;28;20098;-88
2022/03/30 10:55:14;;;;;;;29.65;19.92;;;;;;;18.48;42.42;99638.91;4984772;28;20026;-89
2022/03/30 10:57:45;;;;;;;29.98;21.15;;;;;;;18.61;41.97;99633.84;4975747;28;20035;-88
2022/03/30 11:00:27;;;;;;;27.13;17.95;;;;;;;18.98;42.12;99631.50;4985722;28;20441;-87
2022/03/30 11:03:26;;;;;;;28.15;20.33;;;;;;;19.48;41.77;99632.72;4973133;28;20089;-88
2022/03/30 11:06:01;;;;;;;25.23;19.23;;;;;;;20.37;39.89;99621.25;4974477;28;20027;-88
2022/03/30 11:08:32;;;;;;;26.90;19.52;;;;;;;20.88;38.21;99610.53;4972919;28;20033;-88
2022/03/30 11:11:01;;;;;;;23.42;17.30;;;;;;;21.46;38.18;99602.41;4973976;28;20106;-88
2022/03/30 11:13:27;;;;;;;25.75;17.48;;;;;;;21.50;36.89;99598.34;4991891;28;20030;-87
2022/03/30 11:16:07;;;;;;;23.65;17.80;;;;;;;22.16;35.06;99599.75;4992543;28;20053;-88
2022/03/30 11:18:34;;;;;;;24.77;17.05;;;;;;;22.45;35.11;99598.63;4984074;28;20027;-87
2022/03/30 11:21:08;;;;;;;22.67;15.20;;;;;;;23.07;35.49;99593.22;4973618;28;20019;-87
2022/03/30 11:23:34;;;;;;;22.73;17.25;;;;;;;22.96;34.79;99597.28;4975718;28;20492;-87
2022/03/30 11:25:59;;;;;;;23.55;16.13;;;;;;;23.08;34.61;99600.19;4992647;28;20034;-87
2022/03/30 11:28:36;;;;;;;23.00;16.55;;;;;;;23.72;33.95;99602.22;4973979;28;20049;-88
2022/03/30 11:31:06;;;;;;;22.67;15.98;;;;;;;23.98;33.84;99605.88;4991896;28;20061;-87
2022/03/30 11:33:35;;;;;;;28.88;17.30;;;;;;;24.47;33.13;99604.44;4989539;28;20038;-88